Terminal Aerodrome Forecast
Issued by NWS Sioux Falls, SD

Home | Current Version | Previous Version | Text Only | Print | Product List | Glossary On
Versions: 1 2 3 4 5 6 7 8 9 10 11 12 13 14 15 16 17 18 19 20 21 22 23 24 25 26 27 28 29 30 31 32 33 34 35 36 37 38 39 40 41 42 43 44 45 46 47 48 49 50
000
FTUS43 KFSD 221438 AAU
TAFSUX
TAF AMD
KSUX 221438Z 2215/2312 03012G22KT 2SM -RA BR OVC006
     FM221800 01012G17KT 4SM -RA BR OVC005
     FM222000 35016G20KT P6SM OVC005
     FM222200 35017G22KT P6SM OVC006
     FM230300 34018G20KT P6SM OVC011=

USA.gov is the U.S. government's official web portal to all federal, state and local government web resources and services.